Time;durP1;ratioP1;P1;durP2;ratioP2;P2;SDS_P1;SDS_P2;PMS_P1;PMS_P2;Temp;Humidity;BMP_temperature;BMP_pressure;BME280_temperature;BME280_humidity;BME280_pressure;Samples;Min_cycle;Max_cycle;Signal;HPM_P1;HPM_P2
2023/07/14 00:02:42;;;;;;;0.30;0.30;;;24.50;70.70;;;;;;6374001;27;20046;-53
2023/07/14 00:05:44;;;;;;;0.35;0.30;;;24.70;70.80;;;;;;6374653;27;20065;-52
2023/07/14 00:08:48;;;;;;;0.32;0.30;;;24.30;70.30;;;;;;6373082;27;20042;-54
2023/07/14 00:11:49;;;;;;;0.30;0.30;;;24.60;70.30;;;;;;6353468;27;20065;-53
2023/07/14 00:14:51;;;;;;;0.30;0.30;;;24.70;70.30;;;;;;6370068;27;20043;-53
2023/07/14 00:17:55;;;;;;;0.40;0.30;;;24.40;70.20;;;;;;6371318;27;20171;-49
2023/07/14 00:20:59;;;;;;;0.25;0.25;;;24.30;69.70;;;;;;6372483;27;20099;-50
2023/07/14 00:24:01;;;;;;;0.40;0.20;;;24.50;70.00;;;;;;6369104;27;20030;-52
2023/07/14 00:27:04;;;;;;;0.40;0.30;;;24.50;70.10;;;;;;6371148;27;20047;-51
2023/07/14 00:30:14;;;;;;;0.60;0.50;;;24.60;69.80;;;;;;6368039;27;20034;-50
2023/07/14 00:33:18;;;;;;;0.63;0.30;;;24.40;69.70;;;;;;6366515;27;20041;-51
2023/07/14 00:36:23;;;;;;;0.55;0.30;;;24.50;70.40;;;;;;6370341;27;20998;-53
2023/07/14 00:39:26;;;;;;;0.30;0.20;;;24.60;70.60;;;;;;6371349;27;20057;-53
2023/07/14 00:42:30;;;;;;;0.25;0.20;;;24.40;69.90;;;;;;6369416;27;20150;-51
2023/07/14 00:45:35;;;;;;;0.28;0.28;;;24.60;69.80;;;;;;6369648;27;20031;-54
2023/07/14 00:48:39;;;;;;;0.50;0.30;;;24.50;69.60;;;;;;6369509;27;20061;-53
2023/07/14 00:51:45;;;;;;;0.30;0.20;;;24.60;69.80;;;;;;6369416;27;20046;-52
2023/07/14 00:54:51;;;;;;;0.30;0.22;;;24.50;69.60;;;;;;6369528;27;20031;-48
2023/07/14 00:57:55;;;;;;;0.43;0.30;;;24.40;69.60;;;;;;6351671;27;20027;-52
2023/07/14 01:01:08;;;;;;;0.57;0.20;;;24.50;70.20;;;;;;6366560;27;20043;-52
2023/07/14 01:04:10;;;;;;;0.20;0.20;;;24.50;69.80;;;;;;6368706;27;20091;-53
2023/07/14 01:07:19;;;;;;;0.63;0.50;;;24.40;69.10;;;;;;6368543;27;20692;-46
2023/07/14 01:10:26;;;;;;;0.32;0.30;;;24.20;66.40;;;;;;6365570;27;20049;-61
2023/07/14 01:13:30;;;;;;;0.40;0.30;;;24.50;69.80;;;;;;6366731;27;20552;-61
2023/07/14 01:16:34;;;;;;;0.40;0.30;;;24.00;69.70;;;;;;6367375;27;20039;-61
2023/07/14 01:19:43;;;;;;;0.32;0.30;;;24.20;69.80;;;;;;6369466;27;20541;-61
2023/07/14 01:22:56;;;;;;;0.50;0.38;;;24.10;69.90;;;;;;6366804;27;20038;-61
2023/07/14 01:26:13;;;;;;;0.40;0.30;;;24.20;69.80;;;;;;6366235;27;20038;-61
2023/07/14 01:29:18;;;;;;;0.30;0.28;;;24.50;70.20;;;;;;6366642;27;20400;-61
2023/07/14 01:32:23;;;;;;;0.40;0.35;;;24.50;70.90;;;;;;6331511;27;20043;-61
2023/07/14 01:35:30;;;;;;;0.40;0.40;;;24.50;70.40;;;;;;6333175;27;20041;-61
2023/07/14 01:38:32;;;;;;;0.60;0.30;;;24.50;70.50;;;;;;6369261;27;20035;-61
2023/07/14 01:41:35;;;;;;;0.60;0.40;;;24.50;70.70;;;;;;6369153;27;20046;-61
2023/07/14 01:44:38;;;;;;;0.43;0.40;;;24.40;70.60;;;;;;6366081;27;20052;-61
2023/07/14 01:47:43;;;;;;;0.50;0.40;;;24.30;71.10;;;;;;6368679;27;20711;-60
2023/07/14 01:50:47;;;;;;;0.30;0.20;;;24.40;70.70;;;;;;6369064;27;20083;-60
2023/07/14 01:53:59;;;;;;;0.50;0.40;;;24.60;70.80;;;;;;6367977;27;20049;-61
2023/07/14 01:57:03;;;;;;;0.60;0.40;;;24.30;70.70;;;;;;6368542;27;20034;-61
2023/07/14 02:00:09;;;;;;;0.47;0.30;;;24.50;71.00;;;;;;6367894;27;20041;-60
2023/07/14 02:03:28;;;;;;;0.47;0.30;;;24.60;71.30;;;;;;6351873;27;20516;-61
2023/07/14 02:06:30;;;;;;;0.40;0.40;;;24.40;70.90;;;;;;6348955;27;20043;-60
2023/07/14 02:09:32;;;;;;;0.43;0.38;;;24.20;71.10;;;;;;6359403;27;20046;-61
2023/07/14 02:12:35;;;;;;;0.40;0.30;;;24.50;71.00;;;;;;6340904;27;20039;-61
2023/07/14 02:15:37;;;;;;;0.40;0.40;;;24.60;71.00;;;;;;6369838;27;20097;-61
2023/07/14 02:18:39;;;;;;;0.65;0.50;;;24.40;71.40;;;;;;6358917;27;20042;-59
2023/07/14 02:21:42;;;;;;;0.40;0.40;;;24.40;71.10;;;;;;6363016;27;20038;-61
2023/07/14 02:24:46;;;;;;;0.65;0.50;;;24.10;71.30;;;;;;6364067;27;20039;-61
2023/07/14 02:27:50;;;;;;;0.30;0.30;;;24.40;71.20;;;;;;6339052;27;20039;-61
2023/07/14 02:31:01;;;;;;;0.50;0.30;;;24.50;71.30;;;;;;6364886;27;20042;-61
2023/07/14 02:34:02;;;;;;;0.20;0.20;;;24.10;71.20;;;;;;6366712;27;20035;-61
2023/07/14 02:37:27;;;;;;;0.80;0.40;;;24.20;71.20;;;;;;6364855;27;20038;-61
2023/07/14 02:40:34;;;;;;;0.45;0.40;;;24.40;71.30;;;;;;6331708;27;20409;-60
2023/07/14 02:43:36;;;;;;;0.30;0.22;;;24.20;71.60;;;;;;6344658;27;20031;-61
2023/07/14 02:46:43;;;;;;;0.60;0.50;;;24.40;71.80;;;;;;6362709;27;20038;-61
2023/07/14 02:49:48;;;;;;;0.35;0.30;;;24.30;71.60;;;;;;6362604;27;20114;-61
2023/07/14 02:52:51;;;;;;;0.35;0.20;;;24.10;71.60;;;;;;6365185;27;20110;-60
2023/07/14 02:55:53;;;;;;;0.28;0.28;;;24.30;71.30;;;;;;6347174;27;20081;-60
2023/07/14 02:58:57;;;;;;;0.40;0.40;;;24.50;71.80;;;;;;6369784;27;20106;-61
2023/07/14 03:01:59;;;;;;;0.28;0.25;;;24.40;71.50;;;;;;6370248;27;20064;-61
2023/07/14 03:05:01;;;;;;;0.40;0.28;;;24.40;71.50;;;;;;6369372;27;20094;-60
2023/07/14 03:08:03;;;;;;;0.60;0.40;;;24.30;71.70;;;;;;6366283;27;20038;-61
2023/07/14 03:11:04;;;;;;;0.30;0.30;;;24.40;71.40;;;;;;6367139;27;20065;-61
2023/07/14 03:14:06;;;;;;;0.47;0.40;;;24.40;71.70;;;;;;6368773;27;20043;-60
2023/07/14 03:17:09;;;;;;;0.28;0.22;;;24.30;71.80;;;;;;6368845;27;20050;-61
2023/07/14 03:20:11;;;;;;;0.47;0.35;;;24.40;72.10;;;;;;6374232;27;20031;-46
2023/07/14 03:23:12;;;;;;;0.30;0.30;;;24.20;72.10;;;;;;6380251;27;20102;-49
2023/07/14 03:26:14;;;;;;;0.30;0.30;;;24.00;71.70;;;;;;6381297;27;20111;-48
2023/07/14 03:29:15;;;;;;;0.43;0.43;;;24.30;71.70;;;;;;6380078;27;20038;-47
2023/07/14 03:32:17;;;;;;;0.40;0.40;;;24.30;72.00;;;;;;6379040;27;20035;-49
2023/07/14 03:35:19;;;;;;;0.30;0.22;;;24.40;71.60;;;;;;6380805;27;20035;-46
2023/07/14 03:38:20;;;;;;;0.40;0.40;;;25.30;72.80;;;;;;6381524;27;20038;-47
2023/07/14 03:41:22;;;;;;;0.55;0.40;;;24.30;71.70;;;;;;6379187;27;20027;-46
2023/07/14 03:44:25;;;;;;;0.30;0.20;;;24.30;72.50;;;;;;6377624;27;20446;-47
2023/07/14 03:47:27;;;;;;;0.50;0.40;;;24.40;72.30;;;;;;6374015;27;20031;-47
2023/07/14 03:50:29;;;;;;;0.30;0.30;;;24.20;72.00;;;;;;6379239;27;20042;-45
2023/07/14 03:53:31;;;;;;;0.40;0.30;;;24.20;72.00;;;;;;6373535;27;20540;-46
2023/07/14 03:56:35;;;;;;;0.75;0.30;;;24.40;91.00;;;;;;6380096;27;20049;-46
2023/07/14 03:59:39;;;;;;;0.30;0.22;;;24.10;71.90;;;;;;6357846;27;20039;-47
2023/07/14 04:02:42;;;;;;;0.60;0.47;;;24.50;72.70;;;;;;6377123;27;20066;-48
2023/07/14 04:05:46;;;;;;;0.20;0.20;;;24.30;72.20;;;;;;6360109;27;20432;-49
2023/07/14 04:08:52;;;;;;;0.20;0.20;;;24.10;72.40;;;;;;6358216;27;20045;-49
2023/07/14 04:11:56;;;;;;;0.30;0.20;;;24.30;72.40;;;;;;6378708;27;20031;-48
2023/07/14 04:14:58;;;;;;;0.70;0.40;;;24.30;72.20;;;;;;6361108;27;20035;-49
2023/07/14 04:18:00;;;;;;;0.30;0.30;;;24.40;72.60;;;;;;6379965;27;20034;-47
2023/07/14 04:21:02;;;;;;;0.40;0.40;;;24.20;71.40;;;;;;6360443;27;20046;-45
2023/07/14 04:24:08;;;;;;;0.35;0.30;;;24.30;71.20;;;;;;6378275;27;20164;-49
2023/07/14 04:27:16;;;;;;;0.40;0.40;;;24.20;71.20;;;;;;6378805;27;20561;-49
2023/07/14 04:30:20;;;;;;;0.40;0.38;;;23.90;71.00;;;;;;6377430;27;20123;-49
2023/07/14 04:33:23;;;;;;;0.52;0.50;;;24.30;71.40;;;;;;6379373;27;20430;-46
2023/07/14 04:36:24;;;;;;;0.57;0.40;;;24.20;71.60;;;;;;6345110;27;20042;-50
2023/07/14 04:39:27;;;;;;;0.50;0.40;;;24.20;71.60;;;;;;6379942;27;20046;-49
2023/07/14 04:42:28;;;;;;;0.30;0.30;;;24.30;71.70;;;;;;6380683;27;20033;-48
2023/07/14 04:45:30;;;;;;;0.28;0.28;;;24.20;71.50;;;;;;6380504;27;20405;-45
2023/07/14 04:48:32;;;;;;;0.50;0.40;;;24.20;71.60;;;;;;6379056;27;20107;-51
2023/07/14 04:51:37;;;;;;;0.50;0.40;;;24.10;71.30;;;;;;6378634;27;20084;-45
2023/07/14 04:54:40;;;;;;;0.30;0.30;;;24.30;72.10;;;;;;6343484;27;20119;-44
2023/07/14 04:57:41;;;;;;;0.40;0.30;;;24.20;71.60;;;;;;6378311;27;20114;-50
2023/07/14 05:00:44;;;;;;;0.38;0.35;;;24.30;72.10;;;;;;6378449;27;20039;-50
2023/07/14 05:03:48;;;;;;;0.38;0.38;;;24.30;71.50;;;;;;6368470;27;20073;-47
2023/07/14 05:06:49;;;;;;;0.43;0.32;;;24.10;71.50;;;;;;6365004;27;20039;-46
2023/07/14 05:09:51;;;;;;;0.52;0.40;;;24.10;72.30;;;;;;6367186;27;20054;-49
2023/07/14 05:12:56;;;;;;;0.20;0.20;;;24.30;71.70;;;;;;6372841;27;20035;-49
2023/07/14 05:15:59;;;;;;;0.47;0.38;;;24.10;71.60;;;;;;6368026;27;20453;-47
2023/07/14 05:19:01;;;;;;;0.40;0.30;;;24.10;71.50;;;;;;6332939;27;20049;-50
2023/07/14 05:22:03;;;;;;;0.50;0.40;;;24.00;71.80;;;;;;6369629;27;20777;-49
2023/07/14 05:25:06;;;;;;;0.30;0.30;;;23.80;71.20;;;;;;6369757;27;20030;-48
2023/07/14 05:28:08;;;;;;;0.40;0.40;;;24.30;68.00;;;;;;6370695;27;20034;-45
2023/07/14 05:31:12;;;;;;;0.45;0.32;;;24.10;71.10;;;;;;6350382;27;20041;-51
2023/07/14 05:34:15;;;;;;;0.35;0.35;;;24.20;71.60;;;;;;6367569;27;20098;-45
2023/07/14 05:37:17;;;;;;;0.30;0.30;;;24.00;71.30;;;;;;6368932;27;20031;-45
2023/07/14 05:40:19;;;;;;;0.60;0.55;;;23.90;71.60;;;;;;6331913;27;20038;-48
2023/07/14 05:43:22;;;;;;;0.63;0.40;;;24.20;71.50;;;;;;6369266;27;20557;-48
2023/07/14 05:46:24;;;;;;;0.55;0.40;;;23.80;71.40;;;;;;6373594;27;20064;-51
2023/07/14 05:49:30;;;;;;;0.40;0.40;;;24.00;71.40;;;;;;6372885;27;20507;-48
2023/07/14 05:52:32;;;;;;;0.55;0.30;;;24.10;71.00;;;;;;6339032;27;20338;-48
2023/07/14 05:55:37;;;;;;;0.47;0.32;;;23.90;71.20;;;;;;6349981;27;20037;-48
2023/07/14 05:58:39;;;;;;;0.40;0.30;;;24.10;71.60;;;;;;6368925;27;20054;-50
2023/07/14 06:01:41;;;;;;;0.30;0.30;;;24.20;71.00;;;;;;6372945;27;20035;-49
2023/07/14 06:04:45;;;;;;;0.57;0.30;;;24.00;71.00;;;;;;6369329;27;20486;-46
2023/07/14 06:07:47;;;;;;;0.47;0.30;;;23.80;70.60;;;;;;6378102;27;20049;-45
2023/07/14 06:10:49;;;;;;;0.50;0.28;;;24.10;71.10;;;;;;6378340;27;20039;-49
2023/07/14 06:13:51;;;;;;;0.55;0.30;;;24.20;71.70;;;;;;6378646;27;20069;-47
2023/07/14 06:16:55;;;;;;;0.93;0.40;;;24.10;71.00;;;;;;6379614;27;20528;-49
2023/07/14 06:20:01;;;;;;;0.30;0.30;;;23.80;70.80;;;;;;6378844;27;20031;-46
2023/07/14 06:23:03;;;;;;;0.85;0.30;;;24.00;71.10;;;;;;6378812;27;20042;-50
2023/07/14 06:26:05;;;;;;;0.60;0.40;;;24.20;71.00;;;;;;6377290;27;20584;-48
2023/07/14 06:29:07;;;;;;;0.40;0.25;;;24.30;71.50;;;;;;6377159;27;20038;-48
2023/07/14 06:32:09;;;;;;;0.40;0.40;;;23.70;71.10;;;;;;6381452;27;20156;-48
2023/07/14 06:35:11;;;;;;;0.40;0.40;;;24.20;70.00;;;;;;6381160;27;20054;-46
2023/07/14 06:38:12;;;;;;;0.30;0.30;;;24.10;70.80;;;;;;6381155;27;20027;-46
2023/07/14 06:41:14;;;;;;;0.50;0.30;;;24.20;71.10;;;;;;6382365;27;20039;-48
2023/07/14 06:44:15;;;;;;;0.40;0.40;;;24.10;70.90;;;;;;6382103;27;20043;-46
2023/07/14 06:47:27;;;;;;;0.32;0.32;;;23.80;70.70;;;;;;6380735;27;20561;-50
2023/07/14 06:50:29;;;;;;;0.43;0.43;;;24.10;70.70;;;;;;6380707;27;20065;-48
2023/07/14 06:53:31;;;;;;;0.25;0.25;;;23.80;71.00;;;;;;6383189;27;20038;-49
2023/07/14 06:56:32;;;;;;;0.40;0.28;;;24.00;90.10;;;;;;6380257;27;20034;-49
2023/07/14 06:59:34;;;;;;;0.32;0.25;;;24.20;71.20;;;;;;6382104;27;20223;-50
2023/07/14 07:02:36;;;;;;;0.60;0.40;;;24.30;70.50;;;;;;6364220;27;20039;-51
2023/07/14 07:05:42;;;;;;;0.38;0.30;;;24.10;70.70;;;;;;6382568;27;20035;-48
2023/07/14 07:08:46;;;;;;;0.40;0.40;;;24.20;70.50;;;;;;6363234;27;20031;-47
2023/07/14 07:11:48;;;;;;;0.50;0.35;;;24.20;71.20;;;;;;6380849;27;20284;-48
2023/07/14 07:14:50;;;;;;;0.52;0.30;;;24.20;71.00;;;;;;6361496;27;20043;-52
2023/07/14 07:17:51;;;;;;;0.43;0.30;;;24.20;70.40;;;;;;6381552;27;20046;-51
2023/07/14 07:20:55;;;;;;;0.50;0.35;;;24.10;70.60;;;;;;6379908;27;20055;-49
2023/07/14 07:23:58;;;;;;;0.22;0.20;;;24.20;70.70;;;;;;6363295;27;20042;-46
2023/07/14 07:27:00;;;;;;;0.55;0.30;;;24.30;70.10;;;;;;6380090;27;20039;-47
2023/07/14 07:30:03;;;;;;;0.47;0.43;;;24.20;70.00;;;;;;6363003;27;20034;-47
2023/07/14 07:33:05;;;;;;;0.47;0.35;;;23.90;89.20;;;;;;6366504;27;20035;-47
2023/07/14 07:36:18;;;;;;;0.32;0.22;;;23.80;69.70;;;;;;6382408;27;20084;-47
2023/07/14 07:39:20;;;;;;;0.30;0.30;;;24.40;70.30;;;;;;6358573;27;20049;-47
2023/07/14 07:42:22;;;;;;;0.50;0.40;;;24.20;70.00;;;;;;6360704;27;20046;-45
2023/07/14 07:45:24;;;;;;;0.40;0.40;;;24.10;69.60;;;;;;6382623;27;20038;-46
2023/07/14 07:48:25;;;;;;;0.40;0.40;;;24.30;69.80;;;;;;6381484;27;20038;-46
2023/07/14 07:51:28;;;;;;;0.55;0.40;;;24.20;69.50;;;;;;6367963;27;20031;-49
2023/07/14 07:54:30;;;;;;;0.50;0.40;;;24.10;88.80;;;;;;6380881;27;20519;-49
2023/07/14 07:57:32;;;;;;;0.30;0.20;;;23.90;69.00;;;;;;6381132;27;20030;-46
2023/07/14 08:00:34;;;;;;;0.77;0.40;;;24.40;69.40;;;;;;6364802;27;20043;-46
2023/07/14 08:03:36;;;;;;;0.77;0.60;;;24.20;69.00;;;;;;6381140;27;20031;-46
2023/07/14 08:06:39;;;;;;;0.50;0.50;;;23.80;69.40;;;;;;6364373;27;20043;-50
2023/07/14 08:09:44;;;;;;;0.85;0.50;;;24.10;69.00;;;;;;6381862;27;20039;-48
2023/07/14 08:12:49;;;;;;;0.47;0.30;;;24.20;68.90;;;;;;6363149;27;20043;-47
2023/07/14 08:15:52;;;;;;;1.38;0.40;;;24.30;65.50;;;;;;6380789;27;20043;-47
2023/07/14 08:18:59;;;;;;;2.78;0.82;;;24.10;68.70;;;;;;6362144;27;20413;-46
2023/07/14 08:22:02;;;;;;;1.15;0.50;;;24.30;68.70;;;;;;6382304;27;20368;-46
2023/07/14 08:25:04;;;;;;;1.02;0.57;;;23.80;68.60;;;;;;6380624;27;20449;-46
2023/07/14 08:28:06;;;;;;;0.50;0.30;;;24.30;68.60;;;;;;6379309;27;20497;-48
2023/07/14 08:31:10;;;;;;;0.85;0.30;;;24.30;68.60;;;;;;6378077;27;20042;-49
2023/07/14 08:34:14;;;;;;;0.88;0.47;;;24.10;68.30;;;;;;6379151;27;20035;-46
2023/07/14 08:37:16;;;;;;;0.52;0.40;;;24.00;89.20;;;;;;6379882;27;20035;-47
2023/07/14 08:40:23;;;;;;;0.65;0.47;;;24.40;68.90;;;;;;6379319;27;20099;-47
2023/07/14 08:43:37;;;;;;;0.65;0.45;;;23.90;66.50;;;;;;6360331;27;20330;-46
2023/07/14 08:46:44;;;;;;;0.47;0.40;;;24.40;66.70;;;;;;6362375;27;20030;-46
2023/07/14 08:49:51;;;;;;;1.00;0.50;;;24.40;66.90;;;;;;6360911;27;20521;-43
2023/07/14 08:52:57;;;;;;;0.40;0.40;;;24.20;66.40;;;;;;6378665;27;20031;-49
2023/07/14 08:56:03;;;;;;;0.50;0.40;;;24.30;66.80;;;;;;6379021;27;20532;-46
2023/07/14 08:59:08;;;;;;;0.68;0.40;;;23.90;66.00;;;;;;6377351;27;20090;-44
2023/07/14 09:02:19;;;;;;;0.57;0.47;;;24.40;66.60;;;;;;6340852;27;20043;-46
2023/07/14 09:05:26;;;;;;;0.82;0.40;;;24.40;66.10;;;;;;6360564;27;20030;-45
2023/07/14 09:08:29;;;;;;;0.50;0.30;;;24.20;65.80;;;;;;6343513;27;20038;-43
2023/07/14 09:11:44;;;;;;;0.47;0.30;;;24.40;65.80;;;;;;6360380;27;20097;-47
2023/07/14 09:14:57;;;;;;;2.20;0.60;;;24.30;65.60;;;;;;6377122;27;20042;-46
2023/07/14 09:18:18;;;;;;;0.50;0.40;;;24.50;66.10;;;;;;6379144;27;20466;-48
2023/07/14 09:21:25;;;;;;;0.60;0.50;;;24.50;65.60;;;;;;6377115;27;20318;-46
2023/07/14 09:24:34;;;;;;;0.88;0.40;;;24.50;65.80;;;;;;6377163;27;20045;-46
2023/07/14 09:27:37;;;;;;;0.73;0.60;;;24.50;65.50;;;;;;6375739;27;20577;-46
2023/07/14 09:30:39;;;;;;;0.80;0.50;;;24.30;65.60;;;;;;6377785;27;20429;-48
2023/07/14 09:33:47;;;;;;;1.42;0.35;;;24.50;65.40;;;;;;6376213;27;20042;-48
2023/07/14 09:36:49;;;;;;;2.28;0.50;;;24.80;65.50;;;;;;6375064;27;20060;-50
2023/07/14 09:40:15;;;;;;;0.77;0.30;;;24.30;65.20;;;;;;6371493;27;20835;-47
2023/07/14 09:43:16;;;;;;;1.35;0.47;;;24.40;65.10;;;;;;6334573;27;20083;-49
2023/07/14 09:46:18;;;;;;;0.55;0.40;;;24.50;65.20;;;;;;6372884;27;20030;-46
2023/07/14 09:49:30;;;;;;;1.10;0.50;;;24.50;65.20;;;;;;6370455;27;20072;-46
2023/07/14 09:52:31;;;;;;;0.50;0.30;;;24.60;65.40;;;;;;6350687;27;20042;-48
2023/07/14 09:55:48;;;;;;;1.25;0.40;;;24.40;65.80;;;;;;6367308;27;20042;-44
2023/07/14 09:58:53;;;;;;;0.90;0.47;;;24.60;65.80;;;;;;6363118;27;20039;-46
2023/07/14 10:01:57;;;;;;;0.93;0.50;;;24.70;65.70;;;;;;6353092;27;20038;-48
2023/07/14 10:05:03;;;;;;;0.68;0.47;;;24.60;65.60;;;;;;6372173;27;20035;-49
2023/07/14 10:08:22;;;;;;;0.70;0.40;;;24.60;65.20;;;;;;6374837;27;20287;-46
2023/07/14 10:11:27;;;;;;;0.90;0.50;;;24.70;65.40;;;;;;6375918;27;20115;-48
2023/07/14 10:14:35;;;;;;;0.40;0.40;;;24.60;65.20;;;;;;6373194;27;20034;-49
2023/07/14 10:17:40;;;;;;;0.57;0.50;;;24.70;65.20;;;;;;6373260;27;20458;-43
2023/07/14 10:20:56;;;;;;;0.43;0.30;;;24.90;65.30;;;;;;6353933;27;20039;-49
2023/07/14 10:24:00;;;;;;;0.47;0.30;;;24.80;65.20;;;;;;6337577;27;20037;-48
2023/07/14 10:27:15;;;;;;;0.50;0.40;;;24.80;65.20;;;;;;6337992;27;20031;-44
2023/07/14 10:30:24;;;;;;;1.48;0.40;;;24.80;65.60;;;;;;6373521;27;20408;-49
2023/07/14 10:33:29;;;;;;;1.08;0.40;;;24.60;65.10;;;;;;6372814;27;20042;-46
2023/07/14 10:36:37;;;;;;;0.63;0.40;;;24.80;65.80;;;;;;6371776;27;20037;-45
2023/07/14 10:39:43;;;;;;;1.10;0.47;;;24.80;65.20;;;;;;6356135;27;20043;-45
2023/07/14 10:42:54;;;;;;;2.13;0.52;;;24.50;65.00;;;;;;6354852;27;20250;-48
2023/07/14 10:45:58;;;;;;;0.43;0.43;;;24.90;65.30;;;;;;6355144;27;20420;-46
2023/07/14 10:49:12;;;;;;;0.80;0.35;;;24.50;64.90;;;;;;6354095;27;20027;-47
2023/07/14 10:52:20;;;;;;;0.60;0.50;;;24.70;65.20;;;;;;6374988;27;20022;-46
2023/07/14 10:55:32;;;;;;;0.60;0.30;;;25.00;65.40;;;;;;6356134;27;20087;-47
2023/07/14 10:58:39;;;;;;;1.35;0.50;;;25.10;65.90;;;;;;6355605;27;20030;-47
2023/07/14 11:01:58;;;;;;;0.95;0.60;;;24.80;65.20;;;;;;6354872;27;20046;-50
2023/07/14 11:05:03;;;;;;;0.77;0.40;;;24.90;65.10;;;;;;6353760;27;20390;-47
2023/07/14 11:08:08;;;;;;;0.52;0.40;;;25.10;65.70;;;;;;6337760;27;20034;-45
2023/07/14 11:11:17;;;;;;;0.57;0.30;;;25.00;65.20;;;;;;6369614;27;20054;-48
2023/07/14 11:14:31;;;;;;;0.70;0.50;;;25.00;64.90;;;;;;6370900;27;20031;-47
2023/07/14 11:17:40;;;;;;;0.52;0.40;;;25.00;65.20;;;;;;6353252;27;20034;-47
2023/07/14 11:20:49;;;;;;;0.77;0.50;;;24.90;64.70;;;;;;6333858;27;20138;-50
2023/07/14 11:23:58;;;;;;;0.80;0.40;;;24.90;64.60;;;;;;6355195;27;20336;-46
2023/07/14 11:27:13;;;;;;;0.82;0.50;;;25.00;65.10;;;;;;6371299;27;20046;-51
2023/07/14 11:30:20;;;;;;;0.70;0.40;;;25.20;64.60;;;;;;6353899;27;20037;-45
2023/07/14 11:33:34;;;;;;;0.43;0.40;;;25.10;64.70;;;;;;6331046;27;20034;-49
2023/07/14 11:36:43;;;;;;;0.70;0.40;;;25.00;64.40;;;;;;6371728;27;20042;-46
2023/07/14 11:39:49;;;;;;;0.50;0.30;;;24.50;64.60;;;;;;6371079;27;20034;-49
2023/07/14 11:42:56;;;;;;;0.90;0.50;;;24.70;64.60;;;;;;6371663;27;20573;-48
2023/07/14 11:46:03;;;;;;;0.47;0.47;;;25.10;64.40;;;;;;6372498;27;20035;-48
2023/07/14 11:49:27;;;;;;;0.68;0.50;;;24.90;64.00;;;;;;6372021;27;20038;-49
2023/07/14 11:52:30;;;;;;;1.52;0.45;;;25.00;64.50;;;;;;6354456;27;20583;-49
2023/07/14 11:55:34;;;;;;;0.65;0.43;;;24.60;63.60;;;;;;6369291;27;20627;-45
2023/07/14 11:58:35;;;;;;;0.50;0.50;;;24.60;63.60;;;;;;6352646;27;20043;-48
2023/07/14 12:01:47;;;;;;;0.70;0.47;;;25.00;63.50;;;;;;6370591;27;20676;-46
2023/07/14 12:04:59;;;;;;;0.70;0.55;;;25.20;64.10;;;;;;6370769;27;20052;-46
2023/07/14 12:08:21;;;;;;;0.82;0.50;;;25.10;63.50;;;;;;6370823;27;20065;-50
2023/07/14 12:11:26;;;;;;;0.60;0.57;;;24.90;63.40;;;;;;6371178;27;20454;-46
2023/07/14 12:14:48;;;;;;;0.90;0.40;;;24.70;63.20;;;;;;6369789;27;20517;-45
2023/07/14 12:17:50;;;;;;;0.98;0.60;;;24.50;63.00;;;;;;6372284;27;20521;-49
2023/07/14 12:21:21;;;;;;;0.60;0.40;;;25.00;63.40;;;;;;6371687;27;20367;-48
2023/07/14 12:24:28;;;;;;;0.57;0.40;;;24.80;63.10;;;;;;6358967;27;20468;-45
2023/07/14 12:27:35;;;;;;;0.40;0.40;;;25.00;63.10;;;;;;6370834;27;20035;-47
2023/07/14 12:30:37;;;;;;;0.77;0.40;;;25.10;63.10;;;;;;6371605;27;20049;-47
2023/07/14 12:33:39;;;;;;;1.02;0.63;;;25.00;62.80;;;;;;6371391;27;20031;-45
2023/07/14 12:36:44;;;;;;;0.60;0.60;;;24.90;63.40;;;;;;6369828;27;20581;-46
2023/07/14 12:39:47;;;;;;;0.50;0.45;;;25.10;63.00;;;;;;6353277;27;20523;-47
2023/07/14 12:42:50;;;;;;;0.40;0.40;;;25.10;63.50;;;;;;6353001;27;20038;-46
2023/07/14 12:45:54;;;;;;;0.57;0.35;;;25.10;63.40;;;;;;6353384;27;20035;-47
2023/07/14 12:49:02;;;;;;;0.60;0.60;;;25.10;63.50;;;;;;6370458;27;20456;-46
2023/07/14 12:52:07;;;;;;;0.38;0.30;;;25.10;63.00;;;;;;6353426;27;20031;-47
2023/07/14 12:55:12;;;;;;;0.50;0.40;;;24.90;63.00;;;;;;6370404;27;20111;-49
2023/07/14 12:58:19;;;;;;;0.82;0.40;;;25.30;64.00;;;;;;6370796;27;20034;-48
2023/07/14 13:01:21;;;;;;;0.65;0.50;;;25.10;63.70;;;;;;6372395;27;20046;-47
2023/07/14 13:04:24;;;;;;;1.10;0.75;;;25.20;63.20;;;;;;6370909;27;20297;-50
2023/07/14 13:07:30;;;;;;;1.50;0.73;;;25.10;63.50;;;;;;6369413;27;20110;-45
2023/07/14 13:10:40;;;;;;;0.60;0.40;;;25.20;63.50;;;;;;6371121;27;20035;-47
2023/07/14 13:13:44;;;;;;;0.20;0.20;;;25.30;63.90;;;;;;6354264;27;20527;-47
2023/07/14 13:16:46;;;;;;;1.67;0.40;;;25.10;63.50;;;;;;6369075;27;20039;-47
2023/07/14 13:19:48;;;;;;;0.45;0.45;;;25.30;64.50;;;;;;6369219;27;20046;-48
2023/07/14 13:23:15;;;;;;;0.85;0.50;;;25.00;63.80;;;;;;6367454;27;20061;-46
2023/07/14 13:26:19;;;;;;;0.60;0.40;;;24.80;64.10;;;;;;6333873;27;20054;-47
2023/07/14 13:29:24;;;;;;;0.68;0.50;;;25.20;64.20;;;;;;6353071;27;20038;-46
2023/07/14 13:32:29;;;;;;;0.30;0.30;;;25.10;64.20;;;;;;6351935;27;20110;-45
2023/07/14 13:35:32;;;;;;;0.30;0.30;;;25.10;63.50;;;;;;6369718;27;20034;-49
2023/07/14 13:38:36;;;;;;;1.02;0.43;;;25.20;63.90;;;;;;6351902;27;20047;-45
2023/07/14 13:41:46;;;;;;;0.55;0.40;;;25.10;64.00;;;;;;6368420;27;20035;-48
2023/07/14 13:44:50;;;;;;;0.50;0.40;;;25.30;64.10;;;;;;6352223;27;20034;-44
2023/07/14 13:47:53;;;;;;;0.40;0.32;;;25.20;64.20;;;;;;6350260;27;20034;-46
2023/07/14 13:50:56;;;;;;;0.85;0.40;;;25.40;64.40;;;;;;6342590;28;20532;-45
2023/07/14 13:54:03;;;;;;;0.40;0.40;;;25.30;64.20;;;;;;6341522;28;20039;-47
2023/07/14 13:57:10;;;;;;;0.35;0.30;;;25.20;61.40;;;;;;6341528;27;20047;-48
2023/07/14 14:00:15;;;;;;;1.38;0.43;;;25.10;64.80;;;;;;6324252;28;20039;-45
2023/07/14 14:03:19;;;;;;;0.50;0.30;;;25.30;64.60;;;;;;6324624;27;20047;-50
2023/07/14 14:06:21;;;;;;;0.90;0.50;;;25.30;64.50;;;;;;6343127;28;20039;-46
2023/07/14 14:09:23;;;;;;;0.40;0.30;;;25.00;64.40;;;;;;6344337;28;20054;-48
2023/07/14 14:12:25;;;;;;;0.93;0.30;;;25.20;64.60;;;;;;6343843;27;20034;-48
2023/07/14 14:15:30;;;;;;;0.70;0.50;;;25.30;65.00;;;;;;6343734;27;20087;-48
2023/07/14 14:18:33;;;;;;;0.30;0.30;;;24.90;64.00;;;;;;6323080;28;20160;-46
2023/07/14 14:21:35;;;;;;;0.40;0.40;;;25.70;64.40;;;;;;6341221;28;20327;-47
2023/07/14 14:24:36;;;;;;;0.68;0.30;;;24.90;63.70;;;;;;6342008;28;20039;-50
2023/07/14 14:27:40;;;;;;;0.30;0.20;;;25.30;63.90;;;;;;6345196;27;20046;-44
2023/07/14 14:30:45;;;;;;;1.65;0.40;;;25.40;63.60;;;;;;6343191;27;20304;-47
2023/07/14 14:33:46;;;;;;;0.68;0.45;;;25.40;63.60;;;;;;6309386;28;20142;-44
2023/07/14 14:36:48;;;;;;;1.00;0.60;;;24.80;62.70;;;;;;6344844;27;20039;-46
2023/07/14 14:39:50;;;;;;;0.50;0.40;;;25.10;63.10;;;;;;6344121;27;20039;-45
2023/07/14 14:42:54;;;;;;;0.52;0.40;;;25.10;62.80;;;;;;6346413;27;20043;-46
2023/07/14 14:45:57;;;;;;;0.60;0.47;;;25.30;62.60;;;;;;6343821;28;20043;-44
2023/07/14 14:49:03;;;;;;;1.73;0.50;;;25.10;62.50;;;;;;6343847;27;20070;-45
2023/07/14 14:52:05;;;;;;;0.50;0.40;;;25.30;61.00;;;;;;6346338;27;20035;-46
2023/07/14 14:55:12;;;;;;;0.63;0.43;;;25.30;62.70;;;;;;6347720;28;20043;-49
2023/07/14 14:58:18;;;;;;;0.50;0.40;;;24.80;62.40;;;;;;6347306;27;20046;-44
2023/07/14 15:01:28;;;;;;;0.32;0.20;;;25.40;63.70;;;;;;6312507;28;20242;-47
2023/07/14 15:04:34;;;;;;;0.30;0.28;;;25.30;63.20;;;;;;6348061;28;20514;-45
2023/07/14 15:07:35;;;;;;;0.88;0.30;;;24.90;63.00;;;;;;6349991;28;20513;-45
2023/07/14 15:10:37;;;;;;;0.90;0.50;;;25.30;63.90;;;;;;6349237;27;20050;-47
2023/07/14 15:13:39;;;;;;;0.60;0.40;;;25.30;63.70;;;;;;6350176;27;20073;-48
2023/07/14 15:16:44;;;;;;;0.50;0.40;;;24.80;64.10;;;;;;6348470;27;20042;-46
2023/07/14 15:19:46;;;;;;;0.45;0.40;;;25.40;65.30;;;;;;6347803;27;20047;-46
2023/07/14 15:22:47;;;;;;;0.35;0.35;;;25.20;65.30;;;;;;6347709;27;20046;-47
2023/07/14 15:25:52;;;;;;;0.55;0.45;;;25.30;66.00;;;;;;6347129;28;20520;-45
2023/07/14 15:28:54;;;;;;;0.22;0.20;;;26.20;67.00;;;;;;6348328;27;20035;-47
2023/07/14 15:31:55;;;;;;;1.15;0.30;;;25.40;67.00;;;;;;6347742;28;20039;-47
2023/07/14 15:34:57;;;;;;;0.75;0.40;;;25.40;67.90;;;;;;6347759;28;20490;-45
2023/07/14 15:38:00;;;;;;;0.57;0.40;;;25.00;87.70;;;;;;6346060;28;20062;-47
2023/07/14 15:41:10;;;;;;;0.20;0.20;;;24.40;69.00;;;;;;6347672;27;20043;-46
2023/07/14 15:44:14;;;;;;;0.75;0.30;;;25.30;69.90;;;;;;6347957;28;20470;-49
2023/07/14 15:47:16;;;;;;;0.50;0.50;;;25.40;70.80;;;;;;6347553;27;20039;-49
2023/07/14 15:50:19;;;;;;;0.50;0.40;;;24.90;71.00;;;;;;6329363;28;20045;-47
2023/07/14 15:53:24;;;;;;;0.73;0.40;;;25.20;72.00;;;;;;6329819;27;20038;-46
2023/07/14 15:56:25;;;;;;;0.70;0.40;;;24.90;90.60;;;;;;6330044;27;20106;-47
2023/07/14 15:59:30;;;;;;;0.57;0.50;;;25.20;73.40;;;;;;6327164;28;20043;-49
2023/07/14 16:02:31;;;;;;;0.50;0.43;;;25.20;73.80;;;;;;6345652;27;20070;-46
2023/07/14 16:05:33;;;;;;;0.40;0.40;;;25.30;74.70;;;;;;6347438;27;20478;-44